This is the latest recevied weather packets stored in our database for station/object HP3ICC-23. If no packets are shown the sender has not sent any weather packets the latest 10 day(s).
| Time | Temp. | Humidity | Pressure | Rain* | Wind** | Luminosity | Snow |
|---|---|---|---|---|---|---|---|
| 1777947752 | 14.44° C | 84% | 1012 hPa | 0 mm | - | - | - |
| 1777946612 | 15° C | 84% | 1011 hPa | 0 mm | - | - | - |
| 1777946551 | 15° C | 84% | 1011 hPa | 0 mm | - | - | - |
| 1777945411 | 15.56° C | 87% | 1013 hPa | 0 mm | - | - | - |
| 1777945351 | 15.56° C | 87% | 1013 hPa | 0 mm | - | - | - |
| 1777944210 | 15° C | 82% | 1011 hPa | 0 mm | - | - | - |
| 1777944150 | 15° C | 82% | 1011 hPa | 0 mm | - | - | - |
| 1777943010 | 15.56° C | 82% | 1011 hPa | 0 mm | - | - | - |
| 1777942949 | 15.56° C | 82% | 1011 hPa | 0 mm | - | - | - |
| 1777941809 | 16.11° C | 82% | 1012 hPa | 0 mm | - | - | - |
| 1777941749 | 16.11° C | 82% | 1012 hPa | 0 mm | - | - | - |
| 1777940608 | 16.67° C | 82% | 1010 hPa | 0 mm | - | - | - |
| 1777940548 | 16.67° C | 82% | 1010 hPa | 0 mm | - | - | - |
| 1777939408 | 17.22° C | 84% | 1010 hPa | 0 mm | - | - | - |
| 1777939348 | 17.22° C | 84% | 1010 hPa | 0 mm | - | - | - |
| 1777938207 | 17.78° C | 88% | 1011 hPa | 0 mm | - | - | - |
| 1777938147 | 17.78° C | 88% | 1011 hPa | 0 mm | - | - | - |
| 1777937007 | 16.67° C | 77% | 1010 hPa | 0 mm | - | - | - |
| 1777936947 | 16.67° C | 77% | 1010 hPa | 0 mm | - | - | - |
| 1777935807 | 17.22° C | 77% | 1011 hPa | 0 mm | - | - | - |
| 1777935746 | 17.22° C | 77% | 1011 hPa | 0 mm | - | - | - |
| 1777934606 | 17.78° C | 77% | 1011 hPa | 0.25 mm | - | - | - |
| 1777934546 | 17.78° C | 77% | 1011 hPa | 0.25 mm | - | - | - |
| 1777933405 | 18.33° C | 77% | 1011 hPa | 0 mm | - | - | - |
| 1777933345 | 18.33° C | 77% | 1011 hPa | 0 mm | - | - | - |
* Rain latest hour (hover to see other rain measurements)
** Current wind speed in m/s (hover to see current wind gust speed)